sensor_id;sensor_type;location;lat;lon;timestamp;P1;durP1;ratioP1;P2;durP2;ratioP2
64498;SDS011;51087;55.718;21.122;2022-12-05T00:03:41;23.42;;;9.55;;
64498;SDS011;51087;55.718;21.122;2022-12-05T00:06:06;23.05;;;9.05;;
64498;SDS011;51087;55.718;21.122;2022-12-05T00:08:32;21.85;;;9.07;;
64498;SDS011;51087;55.718;21.122;2022-12-05T00:10:58;18.55;;;8.32;;
64498;SDS011;51087;55.718;21.122;2022-12-05T00:13:23;21.25;;;9.30;;
64498;SDS011;51087;55.718;21.122;2022-12-05T00:15:48;22.27;;;9.23;;
64498;SDS011;51087;55.718;21.122;2022-12-05T00:18:14;19.67;;;9.00;;
64498;SDS011;51087;55.718;21.122;2022-12-05T00:20:46;23.20;;;9.65;;
64498;SDS011;51087;55.718;21.122;2022-12-05T00:23:13;20.73;;;9.32;;
64498;SDS011;51087;55.718;21.122;2022-12-05T00:25:39;21.65;;;9.35;;
64498;SDS011;51087;55.718;21.122;2022-12-05T00:28:05;21.38;;;9.85;;
64498;SDS011;51087;55.718;21.122;2022-12-05T00:30:30;26.23;;;10.10;;
64498;SDS011;51087;55.718;21.122;2022-12-05T00:32:56;21.63;;;8.43;;
64498;SDS011;51087;55.718;21.122;2022-12-05T00:35:22;24.02;;;9.98;;
64498;SDS011;51087;55.718;21.122;2022-12-05T00:37:48;22.38;;;10.18;;
64498;SDS011;51087;55.718;21.122;2022-12-05T00:40:13;27.08;;;10.68;;
64498;SDS011;51087;55.718;21.122;2022-12-05T00:42:39;24.13;;;10.48;;
64498;SDS011;51087;55.718;21.122;2022-12-05T00:45:04;23.40;;;11.18;;
64498;SDS011;51087;55.718;21.122;2022-12-05T00:47:33;27.83;;;11.30;;
64498;SDS011;51087;55.718;21.122;2022-12-05T00:49:59;23.83;;;10.75;;
64498;SDS011;51087;55.718;21.122;2022-12-05T00:52:25;22.83;;;10.65;;
64498;SDS011;51087;55.718;21.122;2022-12-05T00:54:51;23.10;;;10.90;;
64498;SDS011;51087;55.718;21.122;2022-12-05T00:57:16;24.00;;;10.68;;
64498;SDS011;51087;55.718;21.122;2022-12-05T00:59:41;26.38;;;11.10;;
64498;SDS011;51087;55.718;21.122;2022-12-05T01:02:07;26.15;;;11.57;;
64498;SDS011;51087;55.718;21.122;2022-12-05T01:04:32;24.25;;;10.60;;
64498;SDS011;51087;55.718;21.122;2022-12-05T01:06:58;21.88;;;11.65;;
64498;SDS011;51087;55.718;21.122;2022-12-05T01:09:24;27.10;;;11.07;;
64498;SDS011;51087;55.718;21.122;2022-12-05T01:11:50;28.15;;;11.65;;
64498;SDS011;51087;55.718;21.122;2022-12-05T01:14:16;23.73;;;10.88;;
64498;SDS011;51087;55.718;21.122;2022-12-05T01:16:44;29.05;;;11.15;;
64498;SDS011;51087;55.718;21.122;2022-12-05T01:19:12;26.67;;;11.07;;
64498;SDS011;51087;55.718;21.122;2022-12-05T01:21:39;26.20;;;11.43;;
64498;SDS011;51087;55.718;21.122;2022-12-05T01:24:06;29.20;;;11.35;;
64498;SDS011;51087;55.718;21.122;2022-12-05T01:26:31;24.55;;;10.75;;
64498;SDS011;51087;55.718;21.122;2022-12-05T01:28:57;25.00;;;11.45;;
64498;SDS011;51087;55.718;21.122;2022-12-05T01:33:51;32.42;;;11.50;;
64498;SDS011;51087;55.718;21.122;2022-12-05T01:36:17;22.90;;;10.68;;
64498;SDS011;51087;55.718;21.122;2022-12-05T01:38:45;27.67;;;11.40;;
64498;SDS011;51087;55.718;21.122;2022-12-05T01:41:12;23.88;;;10.98;;
64498;SDS011;51087;55.718;21.122;2022-12-05T01:46:18;26.13;;;11.02;;
64498;SDS011;51087;55.718;21.122;2022-12-05T01:48:43;23.67;;;10.63;;
64498;SDS011;51087;55.718;21.122;2022-12-05T01:51:09;25.92;;;11.25;;
64498;SDS011;51087;55.718;21.122;2022-12-05T01:53:35;23.13;;;10.35;;
64498;SDS011;51087;55.718;21.122;2022-12-05T01:56:01;24.08;;;10.90;;
64498;SDS011;51087;55.718;21.122;2022-12-05T01:58:30;31.20;;;10.63;;
64498;SDS011;51087;55.718;21.122;2022-12-05T02:01:00;34.63;;;11.50;;
64498;SDS011;51087;55.718;21.122;2022-12-05T02:03:25;28.20;;;11.15;;
64498;SDS011;51087;55.718;21.122;2022-12-05T02:05:51;22.80;;;11.05;;
64498;SDS011;51087;55.718;21.122;2022-12-05T02:08:19;26.23;;;11.43;;
64498;SDS011;51087;55.718;21.122;2022-12-05T02:10:51;27.40;;;10.32;;
64498;SDS011;51087;55.718;21.122;2022-12-05T02:19:43;21.45;;;9.35;;
64498;SDS011;51087;55.718;21.122;2022-12-05T02:35:26;26.65;;;11.10;;
64498;SDS011;51087;55.718;21.122;2022-12-05T02:43:21;33.30;;;12.10;;
64498;SDS011;51087;55.718;21.122;2022-12-05T02:45:53;30.17;;;12.20;;
64498;SDS011;51087;55.718;21.122;2022-12-05T02:48:22;31.73;;;11.85;;
64498;SDS011;51087;55.718;21.122;2022-12-05T02:50:51;34.78;;;12.63;;
64498;SDS011;51087;55.718;21.122;2022-12-05T02:53:18;31.42;;;11.82;;
64498;SDS011;51087;55.718;21.122;2022-12-05T02:55:46;33.08;;;12.00;;
64498;SDS011;51087;55.718;21.122;2022-12-05T02:58:23;30.02;;;12.70;;
64498;SDS011;51087;55.718;21.122;2022-12-05T03:00:55;34.30;;;12.57;;
64498;SDS011;51087;55.718;21.122;2022-12-05T03:03:22;28.77;;;10.88;;
64498;SDS011;51087;55.718;21.122;2022-12-05T03:08:43;26.67;;;10.80;;
64498;SDS011;51087;55.718;21.122;2022-12-05T03:11:11;31.25;;;11.98;;
64498;SDS011;51087;55.718;21.122;2022-12-05T03:13:39;32.40;;;11.80;;
64498;SDS011;51087;55.718;21.122;2022-12-05T03:16:16;29.90;;;11.60;;
64498;SDS011;51087;55.718;21.122;2022-12-05T03:18:50;28.38;;;11.52;;
64498;SDS011;51087;55.718;21.122;2022-12-05T03:21:30;27.92;;;11.20;;
64498;SDS011;51087;55.718;21.122;2022-12-05T03:24:05;30.00;;;11.55;;
64498;SDS011;51087;55.718;21.122;2022-12-05T03:34:45;28.50;;;12.27;;
64498;SDS011;51087;55.718;21.122;2022-12-05T03:40:02;28.02;;;10.82;;
64498;SDS011;51087;55.718;21.122;2022-12-05T03:42:33;25.40;;;10.98;;
64498;SDS011;51087;55.718;21.122;2022-12-05T03:45:11;32.03;;;11.27;;
64498;SDS011;51087;55.718;21.122;2022-12-05T03:50:23;25.83;;;10.30;;
64498;SDS011;51087;55.718;21.122;2022-12-05T03:52:53;27.92;;;10.75;;
64498;SDS011;51087;55.718;21.122;2022-12-05T03:55:22;29.17;;;10.20;;
64498;SDS011;51087;55.718;21.122;2022-12-05T04:00:19;30.83;;;11.35;;
64498;SDS011;51087;55.718;21.122;2022-12-05T04:02:51;28.25;;;11.10;;
64498;SDS011;51087;55.718;21.122;2022-12-05T04:05:43;25.88;;;10.70;;
64498;SDS011;51087;55.718;21.122;2022-12-05T04:11:18;35.72;;;11.82;;
64498;SDS011;51087;55.718;21.122;2022-12-05T04:13:53;29.45;;;11.95;;
64498;SDS011;51087;55.718;21.122;2022-12-05T04:16:24;34.40;;;12.88;;
64498;SDS011;51087;55.718;21.122;2022-12-05T04:19:16;26.95;;;11.30;;
64498;SDS011;51087;55.718;21.122;2022-12-05T04:21:45;34.95;;;12.95;;
64498;SDS011;51087;55.718;21.122;2022-12-05T04:24:15;34.03;;;12.18;;
64498;SDS011;51087;55.718;21.122;2022-12-05T04:27:19;30.60;;;10.65;;
64498;SDS011;51087;55.718;21.122;2022-12-05T04:29:57;29.98;;;12.57;;
64498;SDS011;51087;55.718;21.122;2022-12-05T04:32:39;30.33;;;11.98;;
64498;SDS011;51087;55.718;21.122;2022-12-05T04:35:16;32.38;;;12.13;;
64498;SDS011;51087;55.718;21.122;2022-12-05T04:37:47;30.30;;;10.45;;
64498;SDS011;51087;55.718;21.122;2022-12-05T04:40:19;27.63;;;11.68;;
64498;SDS011;51087;55.718;21.122;2022-12-05T04:42:50;26.90;;;11.38;;
64498;SDS011;51087;55.718;21.122;2022-12-05T04:45:19;26.55;;;11.18;;
64498;SDS011;51087;55.718;21.122;2022-12-05T04:47:48;31.10;;;11.90;;
64498;SDS011;51087;55.718;21.122;2022-12-05T04:50:17;29.83;;;11.07;;
64498;SDS011;51087;55.718;21.122;2022-12-05T04:52:45;29.95;;;10.88;;
64498;SDS011;51087;55.718;21.122;2022-12-05T04:55:16;31.75;;;12.30;;
64498;SDS011;51087;55.718;21.122;2022-12-05T04:57:54;28.85;;;11.85;;
64498;SDS011;51087;55.718;21.122;2022-12-05T05:03:30;29.02;;;11.85;;
64498;SDS011;51087;55.718;21.122;2022-12-05T05:06:00;34.25;;;13.13;;
64498;SDS011;51087;55.718;21.122;2022-12-05T05:08:27;30.77;;;10.60;;
64498;SDS011;51087;55.718;21.122;2022-12-05T05:11:08;27.00;;;11.55;;
64498;SDS011;51087;55.718;21.122;2022-12-05T05:13:37;29.75;;;12.15;;
64498;SDS011;51087;55.718;21.122;2022-12-05T05:16:03;38.22;;;12.07;;
64498;SDS011;51087;55.718;21.122;2022-12-05T05:18:29;34.38;;;12.10;;
64498;SDS011;51087;55.718;21.122;2022-12-05T05:20:55;31.85;;;12.45;;
64498;SDS011;51087;55.718;21.122;2022-12-05T05:23:20;31.75;;;12.68;;
64498;SDS011;51087;55.718;21.122;2022-12-05T05:25:50;30.33;;;11.80;;
64498;SDS011;51087;55.718;21.122;2022-12-05T05:28:17;33.80;;;11.95;;
64498;SDS011;51087;55.718;21.122;2022-12-05T05:30:42;31.25;;;12.45;;
64498;SDS011;51087;55.718;21.122;2022-12-05T05:33:08;40.47;;;14.18;;
64498;SDS011;51087;55.718;21.122;2022-12-05T05:35:36;29.10;;;12.18;;
64498;SDS011;51087;55.718;21.122;2022-12-05T05:38:02;33.53;;;12.57;;
64498;SDS011;51087;55.718;21.122;2022-12-05T05:40:28;26.58;;;10.68;;
64498;SDS011;51087;55.718;21.122;2022-12-05T05:42:53;28.80;;;11.45;;
64498;SDS011;51087;55.718;21.122;2022-12-05T05:45:19;26.38;;;10.02;;
64498;SDS011;51087;55.718;21.122;2022-12-05T05:47:46;27.17;;;10.52;;
64498;SDS011;51087;55.718;21.122;2022-12-05T05:50:12;25.25;;;10.40;;
64498;SDS011;51087;55.718;21.122;2022-12-05T05:52:39;31.05;;;10.80;;
64498;SDS011;51087;55.718;21.122;2022-12-05T05:55:05;28.88;;;11.32;;
64498;SDS011;51087;55.718;21.122;2022-12-05T05:57:31;30.50;;;11.43;;
64498;SDS011;51087;55.718;21.122;2022-12-05T05:59:57;31.27;;;12.07;;
64498;SDS011;51087;55.718;21.122;2022-12-05T06:02:22;33.17;;;11.30;;
64498;SDS011;51087;55.718;21.122;2022-12-05T06:04:48;30.45;;;11.60;;
64498;SDS011;51087;55.718;21.122;2022-12-05T06:07:13;32.22;;;11.63;;
64498;SDS011;51087;55.718;21.122;2022-12-05T06:09:38;30.83;;;11.15;;
64498;SDS011;51087;55.718;21.122;2022-12-05T06:12:04;25.70;;;11.05;;
64498;SDS011;51087;55.718;21.122;2022-12-05T06:14:30;32.35;;;12.65;;
64498;SDS011;51087;55.718;21.122;2022-12-05T06:16:56;31.33;;;10.90;;
64498;SDS011;51087;55.718;21.122;2022-12-05T06:19:21;33.50;;;12.02;;
64498;SDS011;51087;55.718;21.122;2022-12-05T06:21:47;36.28;;;13.32;;
64498;SDS011;51087;55.718;21.122;2022-12-05T06:24:14;32.38;;;12.73;;
64498;SDS011;51087;55.718;21.122;2022-12-05T06:26:40;29.10;;;11.52;;
64498;SDS011;51087;55.718;21.122;2022-12-05T06:29:06;29.33;;;11.55;;
64498;SDS011;51087;55.718;21.122;2022-12-05T06:31:31;25.42;;;10.55;;
64498;SDS011;51087;55.718;21.122;2022-12-05T06:34:01;26.52;;;11.23;;
64498;SDS011;51087;55.718;21.122;2022-12-05T06:36:28;30.92;;;11.55;;
64498;SDS011;51087;55.718;21.122;2022-12-05T06:38:55;26.88;;;10.73;;
64498;SDS011;51087;55.718;21.122;2022-12-05T06:41:23;29.15;;;11.50;;
64498;SDS011;51087;55.718;21.122;2022-12-05T06:43:53;33.08;;;11.13;;
64498;SDS011;51087;55.718;21.122;2022-12-05T06:46:20;24.42;;;10.77;;
64498;SDS011;51087;55.718;21.122;2022-12-05T06:48:46;28.83;;;9.95;;
64498;SDS011;51087;55.718;21.122;2022-12-05T06:51:13;33.17;;;13.85;;
64498;SDS011;51087;55.718;21.122;2022-12-05T06:53:43;32.13;;;12.48;;
64498;SDS011;51087;55.718;21.122;2022-12-05T06:56:10;28.38;;;11.10;;
64498;SDS011;51087;55.718;21.122;2022-12-05T06:58:40;24.92;;;11.07;;
64498;SDS011;51087;55.718;21.122;2022-12-05T07:01:13;25.38;;;10.50;;
64498;SDS011;51087;55.718;21.122;2022-12-05T07:03:59;24.60;;;10.05;;
64498;SDS011;51087;55.718;21.122;2022-12-05T07:06:26;25.77;;;9.52;;
64498;SDS011;51087;55.718;21.122;2022-12-05T07:08:52;21.77;;;9.40;;
64498;SDS011;51087;55.718;21.122;2022-12-05T07:11:17;20.88;;;9.35;;
64498;SDS011;51087;55.718;21.122;2022-12-05T07:13:43;23.58;;;10.15;;
64498;SDS011;51087;55.718;21.122;2022-12-05T07:16:08;26.88;;;11.35;;
64498;SDS011;51087;55.718;21.122;2022-12-05T07:18:34;23.42;;;9.63;;
64498;SDS011;51087;55.718;21.122;2022-12-05T07:21:01;24.38;;;10.35;;
64498;SDS011;51087;55.718;21.122;2022-12-05T07:23:29;28.90;;;10.18;;
64498;SDS011;51087;55.718;21.122;2022-12-05T07:25:54;22.30;;;9.10;;
64498;SDS011;51087;55.718;21.122;2022-12-05T07:28:21;25.90;;;9.90;;
64498;SDS011;51087;55.718;21.122;2022-12-05T07:30:47;24.25;;;9.45;;
64498;SDS011;51087;55.718;21.122;2022-12-05T07:33:13;23.85;;;8.85;;
64498;SDS011;51087;55.718;21.122;2022-12-05T07:35:38;23.92;;;8.88;;
64498;SDS011;51087;55.718;21.122;2022-12-05T07:38:04;26.55;;;10.55;;
64498;SDS011;51087;55.718;21.122;2022-12-05T07:40:29;23.92;;;10.38;;
64498;SDS011;51087;55.718;21.122;2022-12-05T07:42:55;26.30;;;10.23;;
64498;SDS011;51087;55.718;21.122;2022-12-05T07:45:20;21.98;;;8.82;;
64498;SDS011;51087;55.718;21.122;2022-12-05T07:47:46;30.77;;;13.23;;
64498;SDS011;51087;55.718;21.122;2022-12-05T07:50:12;22.17;;;8.68;;
64498;SDS011;51087;55.718;21.122;2022-12-05T07:52:39;19.88;;;8.38;;
64498;SDS011;51087;55.718;21.122;2022-12-05T07:55:05;19.25;;;8.07;;
64498;SDS011;51087;55.718;21.122;2022-12-05T07:57:31;20.80;;;8.50;;
64498;SDS011;51087;55.718;21.122;2022-12-05T07:59:56;13.93;;;6.78;;
64498;SDS011;51087;55.718;21.122;2022-12-05T08:02:22;16.88;;;6.97;;
64498;SDS011;51087;55.718;21.122;2022-12-05T08:04:47;22.10;;;8.55;;
64498;SDS011;51087;55.718;21.122;2022-12-05T08:07:13;21.05;;;8.85;;
64498;SDS011;51087;55.718;21.122;2022-12-05T08:09:38;21.50;;;7.90;;
64498;SDS011;51087;55.718;21.122;2022-12-05T08:12:04;23.67;;;8.68;;
64498;SDS011;51087;55.718;21.122;2022-12-05T08:14:29;18.38;;;8.32;;
64498;SDS011;51087;55.718;21.122;2022-12-05T08:16:54;27.77;;;9.43;;
64498;SDS011;51087;55.718;21.122;2022-12-05T08:19:20;26.15;;;9.32;;
64498;SDS011;51087;55.718;21.122;2022-12-05T08:21:45;26.15;;;10.52;;
64498;SDS011;51087;55.718;21.122;2022-12-05T08:24:11;26.23;;;8.73;;
64498;SDS011;51087;55.718;21.122;2022-12-05T08:26:37;22.60;;;9.48;;
64498;SDS011;51087;55.718;21.122;2022-12-05T08:29:04;40.28;;;14.55;;
64498;SDS011;51087;55.718;21.122;2022-12-05T08:31:37;47.65;;;18.38;;
64498;SDS011;51087;55.718;21.122;2022-12-05T08:34:08;23.10;;;8.23;;
64498;SDS011;51087;55.718;21.122;2022-12-05T08:36:37;22.55;;;9.18;;
64498;SDS011;51087;55.718;21.122;2022-12-05T08:39:03;21.10;;;8.43;;
64498;SDS011;51087;55.718;21.122;2022-12-05T08:41:31;24.50;;;9.95;;
64498;SDS011;51087;55.718;21.122;2022-12-05T08:43:58;23.45;;;9.57;;
64498;SDS011;51087;55.718;21.122;2022-12-05T08:46:29;24.33;;;10.55;;
64498;SDS011;51087;55.718;21.122;2022-12-05T08:49:00;24.02;;;9.25;;
64498;SDS011;51087;55.718;21.122;2022-12-05T08:51:26;25.70;;;10.52;;
64498;SDS011;51087;55.718;21.122;2022-12-05T08:53:52;26.50;;;10.38;;
64498;SDS011;51087;55.718;21.122;2022-12-05T08:56:17;23.25;;;10.77;;
64498;SDS011;51087;55.718;21.122;2022-12-05T08:58:43;28.60;;;12.10;;
64498;SDS011;51087;55.718;21.122;2022-12-05T09:01:10;20.95;;;8.45;;
64498;SDS011;51087;55.718;21.122;2022-12-05T09:03:37;18.73;;;8.13;;
64498;SDS011;51087;55.718;21.122;2022-12-05T09:06:07;25.48;;;9.68;;
64498;SDS011;51087;55.718;21.122;2022-12-05T09:08:36;16.83;;;7.23;;
64498;SDS011;51087;55.718;21.122;2022-12-05T09:11:04;25.05;;;9.77;;
64498;SDS011;51087;55.718;21.122;2022-12-05T09:13:33;23.13;;;9.40;;
64498;SDS011;51087;55.718;21.122;2022-12-05T09:16:03;21.67;;;8.20;;
64498;SDS011;51087;55.718;21.122;2022-12-05T09:18:40;22.60;;;8.20;;
64498;SDS011;51087;55.718;21.122;2022-12-05T09:21:13;17.33;;;7.35;;
64498;SDS011;51087;55.718;21.122;2022-12-05T09:23:43;19.35;;;8.23;;
64498;SDS011;51087;55.718;21.122;2022-12-05T09:26:10;21.65;;;7.30;;
64498;SDS011;51087;55.718;21.122;2022-12-05T09:28:37;21.27;;;7.63;;
64498;SDS011;51087;55.718;21.122;2022-12-05T09:31:04;16.52;;;7.38;;
64498;SDS011;51087;55.718;21.122;2022-12-05T09:33:32;20.33;;;7.93;;
64498;SDS011;51087;55.718;21.122;2022-12-05T09:36:10;21.20;;;8.77;;
64498;SDS011;51087;55.718;21.122;2022-12-05T09:38:40;18.92;;;8.48;;
64498;SDS011;51087;55.718;21.122;2022-12-05T09:41:11;20.90;;;8.82;;
64498;SDS011;51087;55.718;21.122;2022-12-05T09:46:28;23.77;;;10.30;;
64498;SDS011;51087;55.718;21.122;2022-12-05T09:48:58;20.02;;;8.20;;
64498;SDS011;51087;55.718;21.122;2022-12-05T09:51:25;21.58;;;9.00;;
64498;SDS011;51087;55.718;21.122;2022-12-05T09:53:51;21.80;;;8.30;;
64498;SDS011;51087;55.718;21.122;2022-12-05T09:56:27;16.45;;;7.60;;
64498;SDS011;51087;55.718;21.122;2022-12-05T09:58:55;19.77;;;8.48;;
64498;SDS011;51087;55.718;21.122;2022-12-05T10:06:49;24.40;;;9.45;;
64498;SDS011;51087;55.718;21.122;2022-12-05T10:17:37;21.20;;;7.90;;
64498;SDS011;51087;55.718;21.122;2022-12-05T10:25:16;15.65;;;6.38;;
64498;SDS011;51087;55.718;21.122;2022-12-05T10:27:45;22.02;;;8.75;;
64498;SDS011;51087;55.718;21.122;2022-12-05T10:30:16;26.55;;;8.85;;
64498;SDS011;51087;55.718;21.122;2022-12-05T10:35:24;19.83;;;7.45;;
64498;SDS011;51087;55.718;21.122;2022-12-05T10:37:54;19.98;;;7.90;;
64498;SDS011;51087;55.718;21.122;2022-12-05T10:40:26;24.42;;;9.05;;
64498;SDS011;51087;55.718;21.122;2022-12-05T10:43:05;18.17;;;7.20;;
64498;SDS011;51087;55.718;21.122;2022-12-05T10:45:32;22.08;;;7.85;;
64498;SDS011;51087;55.718;21.122;2022-12-05T10:48:05;26.70;;;10.02;;
64498;SDS011;51087;55.718;21.122;2022-12-05T10:50:35;19.10;;;8.05;;
64498;SDS011;51087;55.718;21.122;2022-12-05T10:53:03;20.52;;;7.85;;
64498;SDS011;51087;55.718;21.122;2022-12-05T10:55:33;21.58;;;7.35;;
64498;SDS011;51087;55.718;21.122;2022-12-05T11:00:40;22.27;;;8.23;;
64498;SDS011;51087;55.718;21.122;2022-12-05T11:03:30;19.13;;;7.05;;
64498;SDS011;51087;55.718;21.122;2022-12-05T11:06:16;21.65;;;8.15;;
64498;SDS011;51087;55.718;21.122;2022-12-05T11:08:43;19.85;;;7.50;;
64498;SDS011;51087;55.718;21.122;2022-12-05T11:11:18;20.05;;;7.13;;
64498;SDS011;51087;55.718;21.122;2022-12-05T11:14:05;17.73;;;7.25;;
64498;SDS011;51087;55.718;21.122;2022-12-05T11:16:33;23.00;;;8.13;;
64498;SDS011;51087;55.718;21.122;2022-12-05T11:21:56;23.98;;;8.15;;
64498;SDS011;51087;55.718;21.122;2022-12-05T11:24:27;20.90;;;7.13;;
64498;SDS011;51087;55.718;21.122;2022-12-05T11:26:55;17.25;;;6.75;;
64498;SDS011;51087;55.718;21.122;2022-12-05T11:29:27;17.15;;;6.93;;
64498;SDS011;51087;55.718;21.122;2022-12-05T11:31:53;18.02;;;7.05;;
64498;SDS011;51087;55.718;21.122;2022-12-05T11:34:20;18.08;;;7.65;;
64498;SDS011;51087;55.718;21.122;2022-12-05T11:36:51;18.20;;;7.35;;
64498;SDS011;51087;55.718;21.122;2022-12-05T11:39:21;17.45;;;7.13;;
64498;SDS011;51087;55.718;21.122;2022-12-05T11:42:06;21.52;;;7.65;;
64498;SDS011;51087;55.718;21.122;2022-12-05T11:53:45;24.05;;;8.55;;
64498;SDS011;51087;55.718;21.122;2022-12-05T11:59:21;25.35;;;9.77;;
64498;SDS011;51087;55.718;21.122;2022-12-05T12:10:10;17.15;;;7.38;;
64498;SDS011;51087;55.718;21.122;2022-12-05T12:15:52;22.88;;;7.53;;
64498;SDS011;51087;55.718;21.122;2022-12-05T12:24:52;26.92;;;10.63;;
64498;SDS011;51087;55.718;21.122;2022-12-05T12:32:42;18.08;;;7.10;;
64498;SDS011;51087;55.718;21.122;2022-12-05T12:40:17;58.13;;;21.95;;
64498;SDS011;51087;55.718;21.122;2022-12-05T12:51:16;35.88;;;11.07;;
64498;SDS011;51087;55.718;21.122;2022-12-05T13:07:47;26.33;;;7.68;;
64498;SDS011;51087;55.718;21.122;2022-12-05T13:12:46;20.77;;;8.40;;
64498;SDS011;51087;55.718;21.122;2022-12-05T13:15:13;21.13;;;7.85;;
64498;SDS011;51087;55.718;21.122;2022-12-05T13:17:43;24.70;;;8.20;;
64498;SDS011;51087;55.718;21.122;2022-12-05T13:20:15;19.73;;;8.05;;
64498;SDS011;51087;55.718;21.122;2022-12-05T13:22:44;21.05;;;7.57;;
64498;SDS011;51087;55.718;21.122;2022-12-05T13:25:13;18.83;;;7.80;;
64498;SDS011;51087;55.718;21.122;2022-12-05T13:27:39;15.93;;;6.75;;
64498;SDS011;51087;55.718;21.122;2022-12-05T13:30:17;20.10;;;7.70;;
64498;SDS011;51087;55.718;21.122;2022-12-05T13:32:43;25.77;;;8.27;;
64498;SDS011;51087;55.718;21.122;2022-12-05T13:35:09;20.88;;;7.88;;
64498;SDS011;51087;55.718;21.122;2022-12-05T13:38:29;20.90;;;7.45;;
64498;SDS011;51087;55.718;21.122;2022-12-05T13:41:14;20.95;;;8.02;;
64498;SDS011;51087;55.718;21.122;2022-12-05T13:43:59;24.30;;;7.82;;
64498;SDS011;51087;55.718;21.122;2022-12-05T13:46:27;18.02;;;7.03;;
64498;SDS011;51087;55.718;21.122;2022-12-05T13:49:00;17.33;;;6.35;;
64498;SDS011;51087;55.718;21.122;2022-12-05T13:51:38;23.67;;;8.07;;
64498;SDS011;51087;55.718;21.122;2022-12-05T13:56:54;21.08;;;8.18;;
64498;SDS011;51087;55.718;21.122;2022-12-05T14:07:41;30.33;;;8.98;;
64498;SDS011;51087;55.718;21.122;2022-12-05T14:10:10;23.67;;;9.23;;
64498;SDS011;51087;55.718;21.122;2022-12-05T14:15:26;27.77;;;10.52;;
64498;SDS011;51087;55.718;21.122;2022-12-05T14:17:56;32.22;;;12.32;;
64498;SDS011;51087;55.718;21.122;2022-12-05T14:20:45;23.95;;;9.50;;
64498;SDS011;51087;55.718;21.122;2022-12-05T14:25:50;30.40;;;10.88;;
64498;SDS011;51087;55.718;21.122;2022-12-05T14:31:44;35.03;;;11.65;;
64498;SDS011;51087;55.718;21.122;2022-12-05T14:34:15;38.45;;;11.55;;
64498;SDS011;51087;55.718;21.122;2022-12-05T14:37:08;34.25;;;10.90;;
64498;SDS011;51087;55.718;21.122;2022-12-05T14:39:49;32.28;;;11.32;;
64498;SDS011;51087;55.718;21.122;2022-12-05T14:44:52;39.65;;;13.90;;
64498;SDS011;51087;55.718;21.122;2022-12-05T14:47:22;37.13;;;11.95;;
64498;SDS011;51087;55.718;21.122;2022-12-05T14:49:55;43.13;;;14.65;;
64498;SDS011;51087;55.718;21.122;2022-12-05T14:52:26;34.70;;;12.43;;
64498;SDS011;51087;55.718;21.122;2022-12-05T14:54:53;42.25;;;13.85;;
64498;SDS011;51087;55.718;21.122;2022-12-05T14:57:27;32.42;;;11.60;;
64498;SDS011;51087;55.718;21.122;2022-12-05T15:00:36;41.22;;;12.80;;
64498;SDS011;51087;55.718;21.122;2022-12-05T15:02:46;35.92;;;12.40;;
64498;SDS011;51087;55.718;21.122;2022-12-05T15:07:51;45.78;;;14.65;;
64498;SDS011;51087;55.718;21.122;2022-12-05T15:10:27;40.90;;;13.60;;
64498;SDS011;51087;55.718;21.122;2022-12-05T15:12:57;51.92;;;13.57;;
64498;SDS011;51087;55.718;21.122;2022-12-05T15:18:21;35.95;;;12.35;;
64498;SDS011;51087;55.718;21.122;2022-12-05T15:20:53;38.90;;;13.55;;
64498;SDS011;51087;55.718;21.122;2022-12-05T15:23:41;42.08;;;14.02;;
64498;SDS011;51087;55.718;21.122;2022-12-05T15:26:22;41.35;;;13.15;;
64498;SDS011;51087;55.718;21.122;2022-12-05T15:34:30;60.70;;;16.75;;
64498;SDS011;51087;55.718;21.122;2022-12-05T15:39:57;43.95;;;15.05;;
64498;SDS011;51087;55.718;21.122;2022-12-05T15:42:49;45.20;;;14.90;;
64498;SDS011;51087;55.718;21.122;2022-12-05T15:45:17;46.03;;;15.57;;
64498;SDS011;51087;55.718;21.122;2022-12-05T15:48:27;46.78;;;15.90;;
64498;SDS011;51087;55.718;21.122;2022-12-05T15:50:42;44.58;;;15.43;;
64498;SDS011;51087;55.718;21.122;2022-12-05T15:56:07;53.90;;;15.98;;
64498;SDS011;51087;55.718;21.122;2022-12-05T15:59:35;56.67;;;16.38;;
64498;SDS011;51087;55.718;21.122;2022-12-05T16:01:37;54.80;;;17.55;;
64498;SDS011;51087;55.718;21.122;2022-12-05T16:06:40;46.05;;;14.57;;
64498;SDS011;51087;55.718;21.122;2022-12-05T16:09:13;53.28;;;17.20;;
64498;SDS011;51087;55.718;21.122;2022-12-05T16:11:54;47.90;;;15.95;;
64498;SDS011;51087;55.718;21.122;2022-12-05T16:14:23;53.15;;;16.90;;
64498;SDS011;51087;55.718;21.122;2022-12-05T16:16:54;51.70;;;17.65;;
64498;SDS011;51087;55.718;21.122;2022-12-05T16:19:24;50.85;;;17.33;;
64498;SDS011;51087;55.718;21.122;2022-12-05T16:24:45;49.67;;;16.35;;
64498;SDS011;51087;55.718;21.122;2022-12-05T16:27:22;60.10;;;18.77;;
64498;SDS011;51087;55.718;21.122;2022-12-05T16:30:15;59.90;;;17.67;;
64498;SDS011;51087;55.718;21.122;2022-12-05T16:32:46;56.78;;;17.25;;
64498;SDS011;51087;55.718;21.122;2022-12-05T16:40:28;57.20;;;18.05;;
64498;SDS011;51087;55.718;21.122;2022-12-05T16:43:03;55.25;;;18.77;;
64498;SDS011;51087;55.718;21.122;2022-12-05T16:45:40;60.38;;;18.90;;
64498;SDS011;51087;55.718;21.122;2022-12-05T16:48:20;52.85;;;17.27;;
64498;SDS011;51087;55.718;21.122;2022-12-05T16:50:46;29.88;;;11.48;;
64498;SDS011;51087;55.718;21.122;2022-12-05T16:53:14;24.17;;;8.98;;
64498;SDS011;51087;55.718;21.122;2022-12-05T16:55:43;41.25;;;13.02;;
64498;SDS011;51087;55.718;21.122;2022-12-05T16:58:19;28.38;;;10.43;;
64498;SDS011;51087;55.718;21.122;2022-12-05T17:00:47;30.27;;;10.65;;
64498;SDS011;51087;55.718;21.122;2022-12-05T17:03:13;34.30;;;13.45;;
64498;SDS011;51087;55.718;21.122;2022-12-05T17:05:41;38.45;;;12.88;;
64498;SDS011;51087;55.718;21.122;2022-12-05T17:08:06;33.63;;;12.82;;
64498;SDS011;51087;55.718;21.122;2022-12-05T17:10:32;41.47;;;14.07;;
64498;SDS011;51087;55.718;21.122;2022-12-05T17:12:58;34.53;;;13.40;;
64498;SDS011;51087;55.718;21.122;2022-12-05T17:15:27;26.08;;;12.20;;
64498;SDS011;51087;55.718;21.122;2022-12-05T17:17:53;34.40;;;13.18;;
64498;SDS011;51087;55.718;21.122;2022-12-05T17:20:19;32.97;;;12.57;;
64498;SDS011;51087;55.718;21.122;2022-12-05T17:22:44;28.30;;;10.15;;
64498;SDS011;51087;55.718;21.122;2022-12-05T17:25:26;29.80;;;11.63;;
64498;SDS011;51087;55.718;21.122;2022-12-05T17:27:56;30.30;;;12.18;;
64498;SDS011;51087;55.718;21.122;2022-12-05T17:30:22;29.63;;;9.68;;
64498;SDS011;51087;55.718;21.122;2022-12-05T17:32:48;51.83;;;19.23;;
64498;SDS011;51087;55.718;21.122;2022-12-05T17:35:15;26.60;;;10.25;;
64498;SDS011;51087;55.718;21.122;2022-12-05T17:37:41;36.83;;;13.27;;
64498;SDS011;51087;55.718;21.122;2022-12-05T17:40:07;37.20;;;14.60;;
64498;SDS011;51087;55.718;21.122;2022-12-05T17:42:33;26.77;;;9.98;;
64498;SDS011;51087;55.718;21.122;2022-12-05T17:44:59;27.65;;;10.50;;
64498;SDS011;51087;55.718;21.122;2022-12-05T17:47:24;25.83;;;10.13;;
64498;SDS011;51087;55.718;21.122;2022-12-05T17:49:50;25.50;;;11.38;;
64498;SDS011;51087;55.718;21.122;2022-12-05T17:52:15;27.02;;;10.63;;